createdAt,value
2023-05-01T00:00:51.955Z,22.00
2023-05-01T00:03:19.517Z,20.10
2023-05-01T00:05:47.046Z,16.30
2023-05-01T00:08:14.072Z,10.50
2023-05-01T00:10:42.068Z,14.50
2023-05-01T00:13:09.517Z,20.30
2023-05-01T00:15:41.578Z,12.90
2023-05-01T00:18:08.534Z,16.30
2023-05-01T00:20:35.465Z,23.80
2023-05-01T00:23:02.468Z,12.00
2023-05-01T00:25:30.783Z,11.80
2023-05-01T00:27:59.243Z,14.50
2023-05-01T00:30:27.236Z,13.80
2023-05-01T00:32:54.317Z,16.90
2023-05-01T00:35:21.183Z,10.90
2023-05-01T00:37:48.368Z,11.50
2023-05-01T00:40:15.531Z,13.80
2023-05-01T00:42:42.537Z,14.90
2023-05-01T00:45:10.332Z,9.00
2023-05-01T00:47:38.241Z,9.80
2023-05-01T00:50:05.877Z,15.50
2023-05-01T00:52:32.808Z,22.40
2023-05-01T00:54:59.810Z,26.10
2023-05-01T00:57:26.745Z,24.70
2023-05-01T00:59:53.589Z,30.60
2023-05-01T01:02:20.320Z,28.90
2023-05-01T01:04:47.400Z,31.50
2023-05-01T01:07:33.316Z,17.80
2023-05-01T01:10:31.591Z,19.20
2023-05-01T01:15:34.490Z,20.00
2023-05-01T01:18:34.279Z,17.90
2023-05-01T01:21:23.063Z,28.50
2023-05-01T01:23:50.210Z,18.80
2023-05-01T01:26:49.820Z,32.70
2023-05-01T01:29:20.910Z,28.70
2023-05-01T01:31:57.386Z,15.60
2023-05-01T01:34:34.787Z,22.50
2023-05-01T01:37:20.711Z,13.80
2023-05-01T01:39:54.988Z,14.20
2023-05-01T01:42:26.276Z,8.80
2023-05-01T01:44:56.287Z,9.40
2023-05-01T01:47:27.892Z,11.60
2023-05-01T01:49:55.279Z,10.40
2023-05-01T01:52:22.335Z,13.30
2023-05-01T01:54:58.159Z,9.00
2023-05-01T01:57:25.967Z,10.60
2023-05-01T01:59:52.868Z,6.50
2023-05-01T02:02:20.328Z,12.30
2023-05-01T02:04:48.088Z,12.70
2023-05-01T02:07:14.917Z,8.60
2023-05-01T02:09:42.373Z,7.30
2023-05-01T02:12:09.479Z,6.90
2023-05-01T02:14:37.119Z,6.50
2023-05-01T02:17:03.979Z,8.40
2023-05-01T02:19:31.843Z,8.30
2023-05-01T02:21:58.644Z,7.10
2023-05-01T02:24:26.820Z,6.20
2023-05-01T02:27:03.483Z,11.20
2023-05-01T02:29:30.717Z,10.70
2023-05-01T02:31:57.637Z,7.10
2023-05-01T02:34:24.711Z,5.90
2023-05-01T02:36:51.614Z,6.20
2023-05-01T02:39:18.872Z,8.20
2023-05-01T02:41:45.808Z,8.40
2023-05-01T02:44:12.635Z,10.20
2023-05-01T02:46:39.372Z,6.10
2023-05-01T02:49:06.542Z,16.90
2023-05-01T02:51:33.517Z,27.40
2023-05-01T02:54:00.345Z,26.20
2023-05-01T02:56:27.578Z,26.40
2023-05-01T02:58:55.106Z,14.20
2023-05-01T03:01:21.970Z,9.30
2023-05-01T03:03:49.377Z,7.50
2023-05-01T03:06:16.364Z,6.40
2023-05-01T03:08:43.783Z,6.90
2023-05-01T03:11:10.791Z,11.90
2023-05-01T03:13:37.509Z,6.70
2023-05-01T03:16:04.919Z,5.70
2023-05-01T03:18:32.033Z,6.70
2023-05-01T03:20:59.010Z,8.10
2023-05-01T03:23:27.442Z,5.80
2023-05-01T03:28:23.177Z,7.90
2023-05-01T03:30:51.715Z,8.10
2023-05-01T03:33:18.656Z,8.90
2023-05-01T03:35:45.518Z,9.50
2023-05-01T03:38:13.010Z,13.00
2023-05-01T03:41:04.577Z,6.40
2023-05-01T03:43:57.929Z,6.60
2023-05-01T03:46:30.931Z,6.80
2023-05-01T03:48:57.976Z,8.70
2023-05-01T03:51:25.124Z,8.40
2023-05-01T03:53:56.191Z,8.70
2023-05-01T03:56:25.309Z,7.40
2023-05-01T03:58:52.593Z,7.90
2023-05-01T04:01:19.616Z,11.40
2023-05-01T04:03:47.829Z,6.90
2023-05-01T04:06:16.582Z,9.80
2023-05-01T04:11:10.605Z,8.40
2023-05-01T04:13:37.709Z,10.00
2023-05-01T04:16:06.265Z,10.10
2023-05-01T04:18:33.719Z,14.80
2023-05-01T04:21:00.508Z,17.00
2023-05-01T04:23:27.464Z,10.20
2023-05-01T04:25:56.981Z,7.10
2023-05-01T04:28:23.841Z,10.00
2023-05-01T04:30:50.701Z,10.00
2023-05-01T04:33:17.857Z,11.10
2023-05-01T04:35:45.045Z,10.40
2023-05-01T04:38:11.871Z,10.10
2023-05-01T04:40:39.326Z,15.20
2023-05-01T04:43:06.217Z,7.80
2023-05-01T04:45:33.096Z,6.90
2023-05-01T04:48:00.131Z,10.30
2023-05-01T04:50:27.314Z,9.30
2023-05-01T04:52:54.395Z,6.70
2023-05-01T04:55:21.368Z,7.40
2023-05-01T04:58:17.464Z,9.60
2023-05-01T05:00:45.691Z,10.70
2023-05-01T05:03:20.267Z,6.80
2023-05-01T05:05:47.065Z,10.50
2023-05-01T05:08:15.057Z,7.70
2023-05-01T05:10:47.190Z,7.40
2023-05-01T05:13:39.451Z,13.10
2023-05-01T05:16:11.497Z,7.10
2023-05-01T05:18:38.450Z,6.10
2023-05-01T05:21:06.048Z,7.70
2023-05-01T05:23:33.031Z,7.80
2023-05-01T05:26:00.872Z,6.10
2023-05-01T05:28:28.366Z,6.80
2023-05-01T05:30:56.108Z,6.90
2023-05-01T05:33:24.466Z,6.90
2023-05-01T05:35:51.822Z,11.30
2023-05-01T05:38:19.745Z,6.90
2023-05-01T05:40:49.904Z,9.10
2023-05-01T05:43:17.605Z,7.40
2023-05-01T05:45:45.273Z,15.90
2023-05-01T05:48:12.240Z,6.40
2023-05-01T05:50:40.656Z,5.30
2023-05-01T05:53:08.500Z,4.80
2023-05-01T05:55:35.682Z,5.60
2023-05-01T05:58:04.161Z,8.70
2023-05-01T06:00:31.708Z,6.60
2023-05-01T06:03:02.050Z,10.40
2023-05-01T06:05:30.316Z,5.80
2023-05-01T06:07:57.168Z,7.20
2023-05-01T06:10:24.038Z,11.70
2023-05-01T06:12:56.290Z,5.30
2023-05-01T06:15:38.826Z,7.90
2023-05-01T06:18:05.949Z,5.80
2023-05-01T06:20:33.171Z,6.60
2023-05-01T06:23:00.036Z,8.30
2023-05-01T06:25:32.696Z,4.60
2023-05-01T06:27:59.485Z,8.10
2023-05-01T06:30:26.280Z,10.30
2023-05-01T06:32:53.141Z,6.80
2023-05-01T06:35:20.495Z,5.70
2023-05-01T06:37:47.348Z,3.70
2023-05-01T06:40:14.266Z,3.50
2023-05-01T06:42:43.509Z,8.80
2023-05-01T06:45:10.487Z,14.40
2023-05-01T06:47:37.297Z,5.30
2023-05-01T06:50:05.920Z,4.60
2023-05-01T06:52:33.883Z,3.20
2023-05-01T06:55:00.784Z,6.70
2023-05-01T06:57:27.720Z,5.40
2023-05-01T06:59:56.697Z,5.30
2023-05-01T07:02:23.888Z,4.00
2023-05-01T07:04:50.768Z,5.10
2023-05-01T07:07:17.515Z,3.90
2023-05-01T07:09:44.229Z,6.80
2023-05-01T07:12:11.828Z,9.00
2023-05-01T07:14:40.096Z,7.20
2023-05-01T07:17:08.469Z,6.30
2023-05-01T07:19:35.662Z,4.40
2023-05-01T07:22:04.096Z,11.20
2023-05-01T07:24:30.974Z,4.50
2023-05-01T07:26:57.784Z,2.20
2023-05-01T07:29:24.598Z,3.20
2023-05-01T07:31:51.370Z,14.00
2023-05-01T07:34:19.016Z,6.40
2023-05-01T07:36:46.160Z,2.60
2023-05-01T07:39:14.138Z,3.40
2023-05-01T07:41:41.055Z,6.20
2023-05-01T07:44:08.475Z,10.20
2023-05-01T07:46:36.461Z,5.10
2023-05-01T07:49:03.752Z,2.40
2023-05-01T07:51:30.915Z,12.90
2023-05-01T07:53:58.440Z,10.10
2023-05-01T07:56:25.275Z,2.80
2023-05-01T07:58:52.029Z,3.40
2023-05-01T08:01:18.911Z,7.50
2023-05-01T08:03:46.514Z,4.20
2023-05-01T08:06:14.987Z,7.00
2023-05-01T08:08:41.787Z,3.70
2023-05-01T08:11:09.160Z,2.10
2023-05-01T08:13:36.299Z,2.30
2023-05-01T08:16:03.435Z,3.50
2023-05-01T08:18:30.502Z,4.10
2023-05-01T08:20:57.234Z,5.00
2023-05-01T08:23:24.774Z,2.70
2023-05-01T08:25:51.823Z,3.30
2023-05-01T08:28:22.241Z,5.60
2023-05-01T08:30:49.143Z,3.40
2023-05-01T08:33:15.958Z,6.30
2023-05-01T08:35:43.005Z,3.80
2023-05-01T08:38:12.697Z,3.30
2023-05-01T08:40:42.117Z,6.00
2023-05-01T08:43:09.106Z,3.10
2023-05-01T08:45:37.092Z,2.40
2023-05-01T08:48:07.173Z,3.60
2023-05-01T08:50:36.001Z,5.10
2023-05-01T08:53:03.633Z,2.70
2023-05-01T08:55:31.808Z,5.10
2023-05-01T08:57:59.068Z,6.90
2023-05-01T09:00:26.682Z,9.10
2023-05-01T09:02:53.756Z,2.70
2023-05-01T09:05:20.693Z,4.60
2023-05-01T09:07:47.750Z,6.00
2023-05-01T09:10:18.619Z,3.50
2023-05-01T09:12:52.225Z,3.00
2023-05-01T09:15:19.029Z,4.70
2023-05-01T09:17:46.214Z,10.40
2023-05-01T09:20:13.438Z,3.80
2023-05-01T09:22:40.630Z,2.70
2023-05-01T09:25:09.869Z,2.80
2023-05-01T09:27:37.286Z,4.70
2023-05-01T09:30:06.163Z,2.40
2023-05-01T09:32:33.496Z,5.70
2023-05-01T09:35:10.754Z,1.60
2023-05-01T09:37:38.211Z,6.30
2023-05-01T09:40:12.295Z,2.00
2023-05-01T09:42:40.143Z,3.70
2023-05-01T09:45:13.408Z,2.40
2023-05-01T09:47:44.200Z,2.10
2023-05-01T09:50:33.754Z,5.50
2023-05-01T09:53:01.052Z,5.40
2023-05-01T09:55:28.028Z,10.70
2023-05-01T09:57:54.770Z,19.90
2023-05-01T10:00:21.546Z,4.20
2023-05-01T10:02:48.862Z,5.30
2023-05-01T10:05:15.705Z,3.90
2023-05-01T10:07:59.294Z,1.90
2023-05-01T10:10:26.155Z,3.50
2023-05-01T10:12:52.978Z,3.80
2023-05-01T10:15:25.437Z,1.30
2023-05-01T10:17:53.228Z,4.40
2023-05-01T10:20:20.375Z,1.60
2023-05-01T10:22:48.303Z,4.80
2023-05-01T10:25:16.142Z,2.30
2023-05-01T10:27:42.973Z,4.50
2023-05-01T10:30:10.246Z,5.00
2023-05-01T10:32:38.731Z,2.30
2023-05-01T10:35:11.496Z,8.40
2023-05-01T10:37:47.017Z,8.10
2023-05-01T10:40:43.772Z,6.70
2023-05-01T10:43:29.883Z,11.10
2023-05-01T10:46:21.537Z,4.30
2023-05-01T10:48:51.102Z,4.80
2023-05-01T10:51:27.461Z,2.70
2023-05-01T10:54:13.433Z,2.40
2023-05-01T10:56:42.297Z,4.70
2023-05-01T10:59:10.027Z,4.50
2023-05-01T11:01:51.474Z,6.90
2023-05-01T11:04:18.577Z,5.20
2023-05-01T11:07:04.699Z,4.60
2023-05-01T11:09:35.611Z,3.10
2023-05-01T11:12:03.057Z,9.70
2023-05-01T11:14:51.820Z,1.80
2023-05-01T11:17:37.630Z,2.80
2023-05-01T11:20:04.967Z,2.90
2023-05-01T11:25:05.736Z,2.50
2023-05-01T11:27:32.956Z,1.80
2023-05-01T11:29:59.670Z,3.60
2023-05-01T11:32:27.480Z,7.20
2023-05-01T11:34:54.487Z,9.10
2023-05-01T11:37:43.937Z,2.60
2023-05-01T11:40:31.068Z,2.70
2023-05-01T11:43:07.667Z,1.90
2023-05-01T11:45:35.757Z,1.50
2023-05-01T11:48:04.602Z,4.30
2023-05-01T11:50:33.325Z,4.80
2023-05-01T11:53:00.229Z,2.70
2023-05-01T11:55:34.071Z,7.20
2023-05-01T11:58:01.364Z,4.30
2023-05-01T12:00:29.249Z,3.80
2023-05-01T12:02:57.164Z,10.80
2023-05-01T12:05:25.791Z,2.30
2023-05-01T12:08:07.270Z,4.60
2023-05-01T12:10:35.429Z,3.30
2023-05-01T12:13:03.437Z,4.30
2023-05-01T12:15:31.805Z,3.90
2023-05-01T12:17:58.606Z,6.60
2023-05-01T12:20:36.261Z,2.80
2023-05-01T12:23:07.068Z,2.10
2023-05-01T12:25:34.430Z,3.30
2023-05-01T12:28:02.632Z,3.20
2023-05-01T12:30:29.575Z,3.50
2023-05-01T12:32:57.245Z,3.70
2023-05-01T12:35:30.486Z,2.90
2023-05-01T12:37:58.177Z,3.50
2023-05-01T12:40:26.260Z,7.40
2023-05-01T12:42:57.066Z,2.90
2023-05-01T12:45:24.306Z,1.60
2023-05-01T12:47:51.107Z,2.50
2023-05-01T12:50:18.425Z,4.40
2023-05-01T12:52:45.223Z,2.10
2023-05-01T12:55:12.284Z,9.00
2023-05-01T12:57:53.296Z,1.40
2023-05-01T13:00:20.246Z,3.20
2023-05-01T13:02:47.140Z,8.60
2023-05-01T13:05:13.915Z,11.40
2023-05-01T13:07:40.858Z,4.40
2023-05-01T13:10:07.854Z,4.00
2023-05-01T13:12:34.728Z,2.80
2023-05-01T13:15:01.453Z,3.20
2023-05-01T13:17:30.087Z,3.50
2023-05-01T13:19:59.609Z,3.70
2023-05-01T13:22:29.613Z,6.30
2023-05-01T13:24:56.413Z,5.30
2023-05-01T13:27:23.483Z,3.20
2023-05-01T13:29:56.906Z,4.90
2023-05-01T13:32:25.052Z,2.30
2023-05-01T13:34:53.527Z,2.80
2023-05-01T13:37:20.878Z,1.90
2023-05-01T13:39:47.763Z,5.40
2023-05-01T13:42:25.460Z,5.00
2023-05-01T13:44:53.919Z,4.10
2023-05-01T13:47:25.268Z,5.10
2023-05-01T13:49:52.019Z,3.70
2023-05-01T13:52:19.286Z,4.50
2023-05-01T13:54:47.019Z,4.50
2023-05-01T13:57:15.503Z,10.30
2023-05-01T13:59:44.333Z,6.30
2023-05-01T14:02:27.803Z,5.30
2023-05-01T14:04:54.802Z,5.40
2023-05-01T14:07:23.324Z,8.50
2023-05-01T14:09:57.010Z,7.10
2023-05-01T14:12:29.647Z,5.30
2023-05-01T14:14:56.896Z,2.20
2023-05-01T14:17:31.840Z,3.10
2023-05-01T14:19:58.814Z,3.70
2023-05-01T14:22:29.296Z,11.20
2023-05-01T14:24:57.121Z,4.30
2023-05-01T14:27:24.310Z,5.10
2023-05-01T14:29:53.974Z,5.80
2023-05-01T14:32:20.806Z,1.90
2023-05-01T14:34:47.517Z,2.90
2023-05-01T14:37:17.067Z,5.80
2023-05-01T14:39:43.804Z,3.50
2023-05-01T14:42:11.077Z,3.70
2023-05-01T14:44:38.843Z,5.20
2023-05-01T14:47:05.973Z,5.50
2023-05-01T14:49:32.994Z,7.20
2023-05-01T14:51:59.846Z,6.10
2023-05-01T14:54:26.839Z,7.10
2023-05-01T14:56:53.587Z,4.90
2023-05-01T14:59:22.247Z,6.00
2023-05-01T15:01:48.985Z,4.40
2023-05-01T15:04:15.981Z,3.70
2023-05-01T15:06:43.107Z,9.30
2023-05-01T15:09:10.341Z,8.30
2023-05-01T15:11:37.262Z,2.90
2023-05-01T15:14:04.104Z,2.80
2023-05-01T15:16:32.112Z,2.90
2023-05-01T15:18:58.905Z,7.80
2023-05-01T15:21:25.869Z,3.50
2023-05-01T15:23:52.937Z,5.50
2023-05-01T15:26:20.821Z,6.30
2023-05-01T15:28:47.579Z,5.70
2023-05-01T15:31:14.427Z,5.10
2023-05-01T15:33:41.595Z,4.20
2023-05-01T15:36:08.565Z,12.90
2023-05-01T15:38:36.270Z,12.50
2023-05-01T15:41:03.135Z,7.60
2023-05-01T15:43:30.313Z,6.20
2023-05-01T15:45:59.161Z,6.50
2023-05-01T15:48:26.113Z,5.60
2023-05-01T15:50:52.850Z,2.70
2023-05-01T15:53:20.753Z,2.60
2023-05-01T15:55:47.569Z,7.10
2023-05-01T15:58:14.405Z,4.80
2023-05-01T16:00:41.238Z,6.00
2023-05-01T16:03:08.658Z,13.60
2023-05-01T16:05:36.138Z,7.70
2023-05-01T16:08:04.761Z,7.40
2023-05-01T16:10:36.544Z,2.90
2023-05-01T16:13:05.712Z,4.60
2023-05-01T16:15:33.290Z,16.90
2023-05-01T16:18:03.241Z,17.60
2023-05-01T16:20:35.111Z,9.80
2023-05-01T16:23:01.946Z,16.30
2023-05-01T16:25:28.701Z,8.80
2023-05-01T16:27:55.453Z,12.00
2023-05-01T16:30:27.032Z,8.90
2023-05-01T16:32:53.908Z,5.80
2023-05-01T16:35:25.844Z,6.20
2023-05-01T16:37:52.798Z,4.90
2023-05-01T16:40:19.562Z,6.40
2023-05-01T16:42:53.606Z,5.70
2023-05-01T16:45:20.725Z,7.10
2023-05-01T16:47:47.670Z,6.70
2023-05-01T16:50:15.810Z,12.40
2023-05-01T16:52:43.271Z,6.70
2023-05-01T16:55:10.319Z,6.30
2023-05-01T16:57:37.457Z,7.60
2023-05-01T17:00:05.388Z,10.50
2023-05-01T17:02:33.102Z,11.80
2023-05-01T17:05:00.347Z,12.40
2023-05-01T17:07:27.573Z,19.00
2023-05-01T17:09:54.289Z,16.30
2023-05-01T17:12:21.196Z,14.90
2023-05-01T17:14:47.915Z,16.90
2023-05-01T17:17:17.034Z,15.00
2023-05-01T17:19:43.869Z,18.30
2023-05-01T17:22:10.749Z,13.50
2023-05-01T17:24:38.577Z,29.10
2023-05-01T17:27:05.589Z,28.30
2023-05-01T17:29:33.085Z,24.10
2023-05-01T17:32:00.268Z,34.40
2023-05-01T17:34:28.532Z,28.10
2023-05-01T17:39:26.975Z,23.30
2023-05-01T17:41:54.157Z,23.10
2023-05-01T17:44:20.995Z,38.80
2023-05-01T17:46:48.310Z,43.60
2023-05-01T17:49:15.653Z,42.70
2023-05-01T17:51:44.600Z,51.80
2023-05-01T17:54:11.515Z,59.20
2023-05-01T17:56:38.582Z,92.00
2023-05-01T17:59:05.387Z,100.10
2023-05-01T18:01:32.179Z,94.00
2023-05-01T18:03:59.363Z,94.80
2023-05-01T18:06:26.407Z,128.90
2023-05-01T18:08:53.278Z,148.90
2023-05-01T18:11:20.256Z,137.40
2023-05-01T18:13:47.581Z,141.60
2023-05-01T18:16:15.036Z,176.90
2023-05-01T18:18:42.066Z,187.50
2023-05-01T18:21:09.154Z,183.90
2023-05-01T18:23:36.183Z,193.60
2023-05-01T18:26:03.246Z,203.30
2023-05-01T18:28:31.053Z,146.80
2023-05-01T18:30:57.888Z,184.10
2023-05-01T18:33:25.023Z,121.50
2023-05-01T18:35:52.080Z,90.70
2023-05-01T18:38:20.657Z,64.70
2023-05-01T18:40:47.960Z,73.80
2023-05-01T18:43:15.090Z,76.20
2023-05-01T18:45:41.894Z,65.60
2023-05-01T18:48:09.049Z,65.50
2023-05-01T18:50:36.188Z,67.80
2023-05-01T18:53:03.391Z,65.20
2023-05-01T18:55:30.449Z,53.00
2023-05-01T18:57:57.588Z,51.80
2023-05-01T19:00:26.001Z,55.30
2023-05-01T19:02:52.972Z,80.50
2023-05-01T19:05:22.042Z,75.30
2023-05-01T19:07:48.846Z,66.70
2023-05-01T19:10:15.812Z,62.60
2023-05-01T19:12:43.112Z,74.10
2023-05-01T19:15:11.201Z,69.60
2023-05-01T19:17:38.976Z,66.00
2023-05-01T19:20:06.960Z,88.40
2023-05-01T19:22:34.025Z,103.10
2023-05-01T19:25:01.101Z,114.40
2023-05-01T19:27:27.931Z,131.10
2023-05-01T19:29:54.913Z,131.60
2023-05-01T19:32:22.527Z,112.30
2023-05-01T19:34:49.721Z,125.60
2023-05-01T19:37:16.477Z,145.10
2023-05-01T19:39:43.249Z,122.30
2023-05-01T19:42:10.141Z,123.40
2023-05-01T19:44:37.046Z,151.10
2023-05-01T19:47:04.300Z,144.80
2023-05-01T19:49:35.315Z,135.80
2023-05-01T19:52:03.726Z,125.60
2023-05-01T19:54:30.961Z,164.00
2023-05-01T19:56:58.260Z,166.00
2023-05-01T19:59:26.287Z,177.40
2023-05-01T20:01:53.263Z,174.80
2023-05-01T20:04:22.314Z,154.70
2023-05-01T20:06:49.836Z,159.60
2023-05-01T20:09:16.716Z,196.50
2023-05-01T20:11:43.665Z,206.60
2023-05-01T20:14:10.615Z,232.40
2023-05-01T20:16:37.590Z,231.80
2023-05-01T20:19:04.500Z,195.70
2023-05-01T20:21:32.227Z,194.90
2023-05-01T20:23:59.105Z,193.70
2023-05-01T20:26:26.046Z,210.80
2023-05-01T20:28:53.047Z,191.30
2023-05-01T20:31:20.815Z,176.20
2023-05-01T20:33:47.828Z,169.60
2023-05-01T20:36:16.649Z,176.70
2023-05-01T20:38:44.840Z,191.80
2023-05-01T20:41:11.538Z,178.50
2023-05-01T20:43:38.350Z,175.40
2023-05-01T20:46:05.330Z,129.90
2023-05-01T20:48:32.826Z,123.00
2023-05-01T20:50:59.856Z,90.60
2023-05-01T20:53:26.664Z,149.10
2023-05-01T20:55:53.368Z,112.90
2023-05-01T20:58:20.463Z,119.80
2023-05-01T21:00:47.560Z,121.40
2023-05-01T21:03:15.502Z,149.20
2023-05-01T21:05:42.383Z,143.50
2023-05-01T21:08:09.219Z,135.40
2023-05-01T21:10:36.385Z,149.40
2023-05-01T21:13:03.194Z,116.60
2023-05-01T21:15:31.385Z,103.80
2023-05-01T21:17:59.902Z,104.60
2023-05-01T21:20:32.289Z,98.80
2023-05-01T21:23:00.183Z,108.10
2023-05-01T21:25:27.517Z,128.50
2023-05-01T21:27:54.278Z,140.90
2023-05-01T21:30:39.371Z,129.80
2023-05-01T21:33:08.114Z,143.50
2023-05-01T21:35:35.112Z,132.70
2023-05-01T21:38:01.940Z,136.10
2023-05-01T21:40:29.098Z,126.50
2023-05-01T21:42:55.864Z,124.20
2023-05-01T21:45:22.557Z,122.10
2023-05-01T21:47:50.238Z,128.90
2023-05-01T21:50:20.622Z,108.30
2023-05-01T21:52:48.855Z,108.50
2023-05-01T21:55:17.625Z,109.30
2023-05-01T22:00:11.714Z,109.40
2023-05-01T22:02:43.073Z,125.80
2023-05-01T22:05:10.481Z,131.30
2023-05-01T22:07:40.771Z,124.90
2023-05-01T22:10:08.953Z,123.50
2023-05-01T22:12:35.847Z,152.40
2023-05-01T22:15:02.800Z,119.70
2023-05-01T22:17:29.766Z,136.20
2023-05-01T22:19:56.599Z,150.20
2023-05-01T22:22:23.424Z,153.50
2023-05-01T22:24:50.160Z,177.10
2023-05-01T22:27:16.957Z,109.10
2023-05-01T22:29:43.748Z,102.70
2023-05-01T22:32:10.578Z,107.90
2023-05-01T22:34:37.405Z,107.20
2023-05-01T22:37:04.673Z,113.30
2023-05-01T22:39:32.921Z,74.50
2023-05-01T22:41:59.868Z,71.30
2023-05-01T22:44:27.126Z,71.70
2023-05-01T22:46:53.965Z,55.30
2023-05-01T22:49:20.846Z,56.70
2023-05-01T22:51:47.900Z,62.20
2023-05-01T22:54:14.684Z,53.50
2023-05-01T22:56:41.392Z,59.40
2023-05-01T22:59:08.285Z,49.50
2023-05-01T23:01:35.025Z,59.00
2023-05-01T23:04:01.837Z,48.00
2023-05-01T23:06:29.128Z,46.30
2023-05-01T23:08:55.839Z,38.90
2023-05-01T23:11:22.635Z,33.20
2023-05-01T23:13:49.706Z,32.70
2023-05-01T23:16:16.530Z,44.90
2023-05-01T23:18:44.336Z,58.90
2023-05-01T23:21:12.462Z,77.60
2023-05-01T23:23:42.422Z,67.20
2023-05-01T23:26:21.902Z,121.60
2023-05-01T23:28:48.726Z,49.40
2023-05-01T23:31:25.194Z,66.60
2023-05-01T23:33:52.742Z,53.80
2023-05-01T23:36:19.883Z,46.30
2023-05-01T23:38:46.854Z,56.70
2023-05-01T23:41:14.184Z,36.50
2023-05-01T23:43:41.200Z,33.00
2023-05-01T23:46:08.022Z,40.70
2023-05-01T23:48:35.359Z,29.70
2023-05-01T23:51:02.244Z,35.60
2023-05-01T23:53:29.297Z,24.90
2023-05-01T23:55:56.401Z,25.10
2023-05-01T23:58:23.912Z,33.00
